SBEG

Eduardo Gomes International Airport

Manaus, Brazil
TAF SBEG 221000Z 2212/2312 03005KT 9999 SCT020 TX31/2218Z TN22/2307Z PROB30 2313/2315 03010KT 3000 TSRA BKN010 FEW025CB BECMG 2215/2217 06005KT SCT020 FEW025TCU PROB40 TEMPO 2217/2221 03010KT 8000 TSRA SCT020 FEW025CB B ECMG 2223/2301 06005KT SCT010 BECMG 2301/2303 09005KT CAVOK RMK PAZ
Issued Valid From Valid To
Jan-22 @ 10:00 UTC
(7 hours ago)
Jan-22 @ 12:00 UTC
(5 hours ago)
Jan-23 @ 12:00 UTC
(in 19 hours)
Expired Click to View Jan-22 @ 12:00 to Jan-22 @ 15:00
TAF SBEG 221000Z 2212/2312 03005KT 9999 SCT020 TX31/2218Z TN22/2307Z
Wind Visibility Clouds
30° at 5 knots 10,000+ meters
  • Scattered at 2,000' AGL
Becoming Jan-22 @ 15:00 to Jan-23 @ 01:00
BECMG 2215/2217 06005KT SCT020 FEW025TCU
Wind Visibility Clouds
60° at 5 knots 10,000+ meters
  • Scattered at 2,000' AGL
  • Few at 2,500' AGL
Temporary  (Probability 40%) Jan-22 @ 17:00 to Jan-22 @ 21:00
PROB40 TEMPO 2217/2221 03010KT 8000 TSRA SCT020 FEW025CB B ECMG 2223/2301 06005KT SCT010
Wind Visibility Clouds Conditions
30° at 10 knots 7,998 meters
  • Scattered at 2,000' AGL
  • Few at 2,500' AGL
  • Scattered at 1,000' AGL
  • Thunderstorm
  • Rain
Becoming Jan-23 @ 01:00 to Jan-23 @ 12:00
BECMG 2301/2303 09005KT CAVOK RMK PAZ
Wind Visibility Clouds Conditions
90° at 5 knots 10,000+ meters
  • No significant clouds
Probable  (Probability 30%) Jan-23 @ 13:00 to Jan-23 @ 15:00
PROB30 2313/2315 03010KT 3000 TSRA BKN010 FEW025CB
Wind Visibility Clouds Conditions
30° at 10 knots 2,993 meters
  • Broken at 1,000' AGL
  • Few at 2,500' AGL
  • Thunderstorm
  • Rain
TAF SBEG 221000Z 2212/2312 03005KT 9999 SCT020 TX31/2218Z TN22/2307Z PROB30 2313/2315 03010KT 3000 TSRA BKN010 FEW025CB BECMG 2215/2217 06005KT SCT020 FEW025TCU PROB40 TEMPO 2217/2221 03010KT 8000 TSRA SCT020 FEW025CB B ECMG 2223/2301 06005KT SCT010 BECMG 2301/2303 09005KT CAVOK RMK PAZ
Issued Jan-22 @ 10:00 UTC
(7 hours ago)
Valid From Jan-22 @ 12:00 UTC
(5 hours ago)
Valid To Jan-23 @ 12:00 UTC
(in 19 hours)
Jan-22 @ 12:00 - Jan-22 @ 15:00
Wind Visibility
30° at 5 knots 10,000+ meters
Clouds
  • Scattered at 2,000' AGL
Becoming Jan-22 @ 15:00 - Jan-23 @ 01:00
Wind Visibility
60° at 5 knots 10,000+ meters
Clouds
  • Scattered at 2,000' AGL
  • Few at 2,500' AGL
Probability 40% Temporary Jan-22 @ 17:00 - Jan-22 @ 21:00
Wind Visibility
30° at 10 knots 7,998 meters
Clouds
  • Scattered at 2,000' AGL
  • Few at 2,500' AGL
  • Scattered at 1,000' AGL
Conditions
  • Thunderstorm
  • Rain
Becoming Jan-23 @ 01:00 - Jan-23 @ 12:00
Wind Visibility
90° at 5 knots 10,000+ meters
Clouds
  • No significant clouds
Conditions
Probability 30% Probable Jan-23 @ 13:00 - Jan-23 @ 15:00
Wind Visibility
30° at 10 knots 2,993 meters
Clouds
  • Broken at 1,000' AGL
  • Few at 2,500' AGL
Conditions
  • Thunderstorm
  • Rain